sensor_id;sensor_type;location;lat;lon;timestamp;P1;durP1;ratioP1;P2;durP2;ratioP2
54705;SDS011;40603;48.774;8.916;2023-03-17T00:01:47;7.00;;;2.90;;
54705;SDS011;40603;48.774;8.916;2023-03-17T00:04:15;6.22;;;3.28;;
54705;SDS011;40603;48.774;8.916;2023-03-17T00:06:41;4.05;;;2.88;;
54705;SDS011;40603;48.774;8.916;2023-03-17T00:09:11;5.55;;;3.17;;
54705;SDS011;40603;48.774;8.916;2023-03-17T00:11:38;5.78;;;3.38;;
54705;SDS011;40603;48.774;8.916;2023-03-17T00:14:04;8.90;;;3.17;;
54705;SDS011;40603;48.774;8.916;2023-03-17T00:16:29;5.50;;;3.35;;
54705;SDS011;40603;48.774;8.916;2023-03-17T00:18:58;4.93;;;2.78;;
54705;SDS011;40603;48.774;8.916;2023-03-17T00:21:28;6.43;;;2.83;;
54705;SDS011;40603;48.774;8.916;2023-03-17T00:23:57;4.57;;;2.80;;
54705;SDS011;40603;48.774;8.916;2023-03-17T00:26:23;4.82;;;3.15;;
54705;SDS011;40603;48.774;8.916;2023-03-17T00:28:49;4.22;;;2.92;;
54705;SDS011;40603;48.774;8.916;2023-03-17T00:31:19;8.48;;;3.50;;
54705;SDS011;40603;48.774;8.916;2023-03-17T00:33:46;5.25;;;3.38;;
54705;SDS011;40603;48.774;8.916;2023-03-17T00:36:16;7.13;;;2.83;;
54705;SDS011;40603;48.774;8.916;2023-03-17T00:41:09;8.15;;;2.95;;
54705;SDS011;40603;48.774;8.916;2023-03-17T00:43:36;11.43;;;3.60;;
54705;SDS011;40603;48.774;8.916;2023-03-17T00:46:04;5.32;;;3.53;;
54705;SDS011;40603;48.774;8.916;2023-03-17T00:48:43;4.93;;;3.40;;
54705;SDS011;40603;48.774;8.916;2023-03-17T00:51:09;4.65;;;3.17;;
54705;SDS011;40603;48.774;8.916;2023-03-17T00:53:35;5.50;;;3.63;;
54705;SDS011;40603;48.774;8.916;2023-03-17T00:56:04;4.95;;;3.40;;
54705;SDS011;40603;48.774;8.916;2023-03-17T00:58:37;6.13;;;3.20;;
54705;SDS011;40603;48.774;8.916;2023-03-17T01:01:02;5.97;;;3.55;;
54705;SDS011;40603;48.774;8.916;2023-03-17T01:03:28;9.80;;;3.90;;
54705;SDS011;40603;48.774;8.916;2023-03-17T01:05:53;6.53;;;3.42;;
54705;SDS011;40603;48.774;8.916;2023-03-17T01:08:20;6.82;;;3.20;;
54705;SDS011;40603;48.774;8.916;2023-03-17T01:10:46;7.80;;;3.20;;
54705;SDS011;40603;48.774;8.916;2023-03-17T01:13:12;5.35;;;3.10;;
54705;SDS011;40603;48.774;8.916;2023-03-17T01:15:39;9.20;;;3.50;;
54705;SDS011;40603;48.774;8.916;2023-03-17T01:18:08;5.93;;;2.90;;
54705;SDS011;40603;48.774;8.916;2023-03-17T01:20:34;9.10;;;3.55;;
54705;SDS011;40603;48.774;8.916;2023-03-17T01:22:59;5.25;;;3.08;;
54705;SDS011;40603;48.774;8.916;2023-03-17T01:25:26;5.88;;;3.20;;
54705;SDS011;40603;48.774;8.916;2023-03-17T01:27:53;5.75;;;3.35;;
54705;SDS011;40603;48.774;8.916;2023-03-17T01:32:44;7.50;;;3.25;;
54705;SDS011;40603;48.774;8.916;2023-03-17T01:35:10;5.53;;;3.47;;
54705;SDS011;40603;48.774;8.916;2023-03-17T01:37:36;9.40;;;3.67;;
54705;SDS011;40603;48.774;8.916;2023-03-17T01:40:02;5.00;;;3.28;;
54705;SDS011;40603;48.774;8.916;2023-03-17T01:42:29;5.85;;;3.33;;
54705;SDS011;40603;48.774;8.916;2023-03-17T01:47:32;4.95;;;3.00;;
54705;SDS011;40603;48.774;8.916;2023-03-17T01:50:02;4.32;;;2.70;;
54705;SDS011;40603;48.774;8.916;2023-03-17T01:52:31;6.30;;;3.63;;
54705;SDS011;40603;48.774;8.916;2023-03-17T01:55:01;10.43;;;3.33;;
54705;SDS011;40603;48.774;8.916;2023-03-17T01:57:32;5.75;;;3.35;;
54705;SDS011;40603;48.774;8.916;2023-03-17T02:02:33;7.07;;;3.08;;
54705;SDS011;40603;48.774;8.916;2023-03-17T02:05:00;6.05;;;3.13;;
54705;SDS011;40603;48.774;8.916;2023-03-17T02:07:28;5.65;;;3.40;;
54705;SDS011;40603;48.774;8.916;2023-03-17T02:09:54;6.30;;;3.00;;
54705;SDS011;40603;48.774;8.916;2023-03-17T02:12:21;5.80;;;2.90;;
54705;SDS011;40603;48.774;8.916;2023-03-17T02:14:47;6.05;;;2.80;;
54705;SDS011;40603;48.774;8.916;2023-03-17T02:17:13;5.47;;;2.40;;
54705;SDS011;40603;48.774;8.916;2023-03-17T02:19:38;6.15;;;3.00;;
54705;SDS011;40603;48.774;8.916;2023-03-17T02:22:04;4.38;;;2.65;;
54705;SDS011;40603;48.774;8.916;2023-03-17T02:24:49;4.30;;;2.60;;
54705;SDS011;40603;48.774;8.916;2023-03-17T02:27:17;4.03;;;2.70;;
54705;SDS011;40603;48.774;8.916;2023-03-17T02:29:45;6.28;;;2.75;;
54705;SDS011;40603;48.774;8.916;2023-03-17T02:32:12;6.85;;;2.92;;
54705;SDS011;40603;48.774;8.916;2023-03-17T02:34:38;8.32;;;2.55;;
54705;SDS011;40603;48.774;8.916;2023-03-17T02:37:05;6.45;;;2.80;;
54705;SDS011;40603;48.774;8.916;2023-03-17T02:39:31;7.72;;;2.70;;
54705;SDS011;40603;48.774;8.916;2023-03-17T02:41:57;7.57;;;2.75;;
54705;SDS011;40603;48.774;8.916;2023-03-17T02:44:22;3.42;;;2.42;;
54705;SDS011;40603;48.774;8.916;2023-03-17T02:46:47;4.25;;;2.65;;
54705;SDS011;40603;48.774;8.916;2023-03-17T02:49:13;5.10;;;2.92;;
54705;SDS011;40603;48.774;8.916;2023-03-17T02:51:39;6.80;;;2.65;;
54705;SDS011;40603;48.774;8.916;2023-03-17T02:54:04;3.03;;;2.35;;
54705;SDS011;40603;48.774;8.916;2023-03-17T02:56:30;5.63;;;2.25;;
54705;SDS011;40603;48.774;8.916;2023-03-17T02:58:55;4.75;;;2.58;;
54705;SDS011;40603;48.774;8.916;2023-03-17T03:01:21;3.17;;;2.05;;
54705;SDS011;40603;48.774;8.916;2023-03-17T03:03:46;7.75;;;2.40;;
54705;SDS011;40603;48.774;8.916;2023-03-17T03:06:13;3.35;;;2.35;;
54705;SDS011;40603;48.774;8.916;2023-03-17T03:08:38;4.78;;;2.75;;
54705;SDS011;40603;48.774;8.916;2023-03-17T03:11:04;6.03;;;2.53;;
54705;SDS011;40603;48.774;8.916;2023-03-17T03:13:30;5.18;;;2.97;;
54705;SDS011;40603;48.774;8.916;2023-03-17T03:15:56;5.97;;;2.85;;
54705;SDS011;40603;48.774;8.916;2023-03-17T03:18:22;4.85;;;2.70;;
54705;SDS011;40603;48.774;8.916;2023-03-17T03:20:47;5.25;;;3.00;;
54705;SDS011;40603;48.774;8.916;2023-03-17T03:23:12;4.30;;;2.63;;
54705;SDS011;40603;48.774;8.916;2023-03-17T03:25:38;5.35;;;2.80;;
54705;SDS011;40603;48.774;8.916;2023-03-17T03:28:04;5.97;;;3.67;;
54705;SDS011;40603;48.774;8.916;2023-03-17T03:30:30;4.30;;;2.90;;
54705;SDS011;40603;48.774;8.916;2023-03-17T03:32:57;5.10;;;3.00;;
54705;SDS011;40603;48.774;8.916;2023-03-17T03:35:22;4.50;;;2.78;;
54705;SDS011;40603;48.774;8.916;2023-03-17T03:37:48;4.03;;;2.70;;
54705;SDS011;40603;48.774;8.916;2023-03-17T03:40:13;7.80;;;3.40;;
54705;SDS011;40603;48.774;8.916;2023-03-17T03:42:39;5.50;;;3.00;;
54705;SDS011;40603;48.774;8.916;2023-03-17T03:45:04;6.43;;;3.20;;
54705;SDS011;40603;48.774;8.916;2023-03-17T03:47:30;9.93;;;3.05;;
54705;SDS011;40603;48.774;8.916;2023-03-17T03:49:56;4.45;;;2.83;;
54705;SDS011;40603;48.774;8.916;2023-03-17T03:52:21;7.05;;;2.92;;
54705;SDS011;40603;48.774;8.916;2023-03-17T03:54:46;6.47;;;2.72;;
54705;SDS011;40603;48.774;8.916;2023-03-17T03:57:12;5.65;;;3.15;;
54705;SDS011;40603;48.774;8.916;2023-03-17T03:59:37;8.48;;;3.78;;
54705;SDS011;40603;48.774;8.916;2023-03-17T04:02:02;9.20;;;3.75;;
54705;SDS011;40603;48.774;8.916;2023-03-17T04:04:28;7.82;;;3.10;;
54705;SDS011;40603;48.774;8.916;2023-03-17T04:06:53;5.20;;;2.65;;
54705;SDS011;40603;48.774;8.916;2023-03-17T04:09:18;4.50;;;2.42;;
54705;SDS011;40603;48.774;8.916;2023-03-17T04:11:44;4.82;;;3.13;;
54705;SDS011;40603;48.774;8.916;2023-03-17T04:14:09;5.25;;;3.08;;
54705;SDS011;40603;48.774;8.916;2023-03-17T04:16:35;9.10;;;3.45;;
54705;SDS011;40603;48.774;8.916;2023-03-17T04:19:00;9.93;;;4.05;;
54705;SDS011;40603;48.774;8.916;2023-03-17T04:21:25;5.30;;;3.22;;
54705;SDS011;40603;48.774;8.916;2023-03-17T04:23:51;8.32;;;2.67;;
54705;SDS011;40603;48.774;8.916;2023-03-17T04:26:16;5.13;;;2.47;;
54705;SDS011;40603;48.774;8.916;2023-03-17T04:28:42;4.85;;;2.85;;
54705;SDS011;40603;48.774;8.916;2023-03-17T04:31:09;5.80;;;3.00;;
54705;SDS011;40603;48.774;8.916;2023-03-17T04:33:36;4.43;;;2.60;;
54705;SDS011;40603;48.774;8.916;2023-03-17T04:36:01;5.57;;;2.95;;
54705;SDS011;40603;48.774;8.916;2023-03-17T04:38:28;5.28;;;2.90;;
54705;SDS011;40603;48.774;8.916;2023-03-17T04:40:53;5.15;;;2.35;;
54705;SDS011;40603;48.774;8.916;2023-03-17T04:43:18;5.95;;;2.90;;
54705;SDS011;40603;48.774;8.916;2023-03-17T04:45:44;5.55;;;2.55;;
54705;SDS011;40603;48.774;8.916;2023-03-17T04:48:09;6.43;;;3.25;;
54705;SDS011;40603;48.774;8.916;2023-03-17T04:50:35;3.20;;;2.20;;
54705;SDS011;40603;48.774;8.916;2023-03-17T04:53:00;6.15;;;2.75;;
54705;SDS011;40603;48.774;8.916;2023-03-17T04:55:26;4.40;;;2.45;;
54705;SDS011;40603;48.774;8.916;2023-03-17T04:57:51;7.03;;;3.08;;
54705;SDS011;40603;48.774;8.916;2023-03-17T05:00:16;3.33;;;2.38;;
54705;SDS011;40603;48.774;8.916;2023-03-17T05:02:42;5.47;;;2.50;;
54705;SDS011;40603;48.774;8.916;2023-03-17T05:05:08;9.95;;;2.72;;
54705;SDS011;40603;48.774;8.916;2023-03-17T05:07:33;6.70;;;2.90;;
54705;SDS011;40603;48.774;8.916;2023-03-17T05:09:59;5.07;;;2.42;;
54705;SDS011;40603;48.774;8.916;2023-03-17T05:12:24;3.97;;;2.58;;
54705;SDS011;40603;48.774;8.916;2023-03-17T05:14:50;4.68;;;3.10;;
54705;SDS011;40603;48.774;8.916;2023-03-17T05:17:15;8.75;;;3.38;;
54705;SDS011;40603;48.774;8.916;2023-03-17T05:19:40;5.97;;;2.63;;
54705;SDS011;40603;48.774;8.916;2023-03-17T05:22:06;7.78;;;3.22;;
54705;SDS011;40603;48.774;8.916;2023-03-17T05:24:31;5.97;;;2.90;;
54705;SDS011;40603;48.774;8.916;2023-03-17T05:26:57;5.38;;;3.00;;
54705;SDS011;40603;48.774;8.916;2023-03-17T05:29:22;6.82;;;2.92;;
54705;SDS011;40603;48.774;8.916;2023-03-17T05:31:48;4.28;;;2.40;;
54705;SDS011;40603;48.774;8.916;2023-03-17T05:34:13;5.70;;;2.63;;
54705;SDS011;40603;48.774;8.916;2023-03-17T05:36:39;5.35;;;2.95;;
54705;SDS011;40603;48.774;8.916;2023-03-17T05:39:05;5.18;;;2.75;;
54705;SDS011;40603;48.774;8.916;2023-03-17T05:41:31;5.53;;;3.00;;
54705;SDS011;40603;48.774;8.916;2023-03-17T05:43:57;8.45;;;3.03;;
54705;SDS011;40603;48.774;8.916;2023-03-17T05:46:23;6.63;;;3.00;;
54705;SDS011;40603;48.774;8.916;2023-03-17T05:48:48;6.20;;;2.88;;
54705;SDS011;40603;48.774;8.916;2023-03-17T05:51:13;7.28;;;2.72;;
54705;SDS011;40603;48.774;8.916;2023-03-17T05:53:39;5.03;;;3.03;;
54705;SDS011;40603;48.774;8.916;2023-03-17T05:56:05;3.35;;;2.15;;
54705;SDS011;40603;48.774;8.916;2023-03-17T05:58:31;8.35;;;2.88;;
54705;SDS011;40603;48.774;8.916;2023-03-17T06:00:56;7.88;;;2.75;;
54705;SDS011;40603;48.774;8.916;2023-03-17T06:03:22;3.35;;;2.28;;
54705;SDS011;40603;48.774;8.916;2023-03-17T06:05:47;7.32;;;2.92;;
54705;SDS011;40603;48.774;8.916;2023-03-17T06:08:12;8.13;;;2.80;;
54705;SDS011;40603;48.774;8.916;2023-03-17T06:10:38;6.80;;;2.88;;
54705;SDS011;40603;48.774;8.916;2023-03-17T06:13:05;3.85;;;2.90;;
54705;SDS011;40603;48.774;8.916;2023-03-17T06:15:30;5.43;;;2.40;;
54705;SDS011;40603;48.774;8.916;2023-03-17T06:17:57;6.45;;;2.85;;
54705;SDS011;40603;48.774;8.916;2023-03-17T06:20:23;5.82;;;2.30;;
54705;SDS011;40603;48.774;8.916;2023-03-17T06:22:49;7.85;;;2.90;;
54705;SDS011;40603;48.774;8.916;2023-03-17T06:25:14;4.07;;;2.40;;
54705;SDS011;40603;48.774;8.916;2023-03-17T06:27:40;4.10;;;2.60;;
54705;SDS011;40603;48.774;8.916;2023-03-17T06:30:06;5.10;;;3.10;;
54705;SDS011;40603;48.774;8.916;2023-03-17T06:32:32;9.57;;;3.30;;
54705;SDS011;40603;48.774;8.916;2023-03-17T06:34:58;9.35;;;3.20;;
54705;SDS011;40603;48.774;8.916;2023-03-17T06:37:23;5.78;;;2.65;;
54705;SDS011;40603;48.774;8.916;2023-03-17T06:39:49;3.95;;;2.72;;
54705;SDS011;40603;48.774;8.916;2023-03-17T06:42:14;6.72;;;2.80;;
54705;SDS011;40603;48.774;8.916;2023-03-17T06:44:39;8.25;;;3.50;;
54705;SDS011;40603;48.774;8.916;2023-03-17T06:47:05;8.20;;;2.85;;
54705;SDS011;40603;48.774;8.916;2023-03-17T06:49:31;5.68;;;3.25;;
54705;SDS011;40603;48.774;8.916;2023-03-17T06:51:56;7.20;;;3.05;;
54705;SDS011;40603;48.774;8.916;2023-03-17T06:54:22;5.20;;;3.20;;
54705;SDS011;40603;48.774;8.916;2023-03-17T06:56:49;8.20;;;3.60;;
54705;SDS011;40603;48.774;8.916;2023-03-17T06:59:15;6.68;;;3.17;;
54705;SDS011;40603;48.774;8.916;2023-03-17T07:01:40;7.97;;;3.00;;
54705;SDS011;40603;48.774;8.916;2023-03-17T07:04:06;7.05;;;2.70;;
54705;SDS011;40603;48.774;8.916;2023-03-17T07:06:31;3.58;;;2.38;;
54705;SDS011;40603;48.774;8.916;2023-03-17T07:08:57;11.48;;;3.17;;
54705;SDS011;40603;48.774;8.916;2023-03-17T07:11:23;8.65;;;3.45;;
54705;SDS011;40603;48.774;8.916;2023-03-17T07:13:48;6.75;;;2.90;;
54705;SDS011;40603;48.774;8.916;2023-03-17T07:16:15;7.47;;;3.15;;
54705;SDS011;40603;48.774;8.916;2023-03-17T07:18:43;9.32;;;3.10;;
54705;SDS011;40603;48.774;8.916;2023-03-17T07:21:08;6.35;;;3.17;;
54705;SDS011;40603;48.774;8.916;2023-03-17T07:23:34;9.52;;;3.22;;
54705;SDS011;40603;48.774;8.916;2023-03-17T07:25:59;11.35;;;2.92;;
54705;SDS011;40603;48.774;8.916;2023-03-17T07:28:25;11.93;;;2.60;;
54705;SDS011;40603;48.774;8.916;2023-03-17T07:30:50;9.20;;;2.95;;
54705;SDS011;40603;48.774;8.916;2023-03-17T07:33:16;11.23;;;2.83;;
54705;SDS011;40603;48.774;8.916;2023-03-17T07:35:44;6.30;;;2.78;;
54705;SDS011;40603;48.774;8.916;2023-03-17T07:38:09;5.88;;;3.15;;
54705;SDS011;40603;48.774;8.916;2023-03-17T07:40:35;18.00;;;3.53;;
54705;SDS011;40603;48.774;8.916;2023-03-17T07:43:01;7.72;;;3.67;;
54705;SDS011;40603;48.774;8.916;2023-03-17T07:45:27;8.80;;;2.88;;
54705;SDS011;40603;48.774;8.916;2023-03-17T07:47:52;11.00;;;3.38;;
54705;SDS011;40603;48.774;8.916;2023-03-17T07:50:18;9.15;;;3.38;;
54705;SDS011;40603;48.774;8.916;2023-03-17T07:52:43;11.05;;;3.53;;
54705;SDS011;40603;48.774;8.916;2023-03-17T07:55:09;8.25;;;3.05;;
54705;SDS011;40603;48.774;8.916;2023-03-17T07:57:37;5.95;;;3.08;;
54705;SDS011;40603;48.774;8.916;2023-03-17T08:00:04;4.63;;;2.90;;
54705;SDS011;40603;48.774;8.916;2023-03-17T08:02:33;9.17;;;2.87;;
54705;SDS011;40603;48.774;8.916;2023-03-17T08:04:58;7.65;;;2.75;;
54705;SDS011;40603;48.774;8.916;2023-03-17T08:07:24;8.50;;;2.92;;
54705;SDS011;40603;48.774;8.916;2023-03-17T08:09:49;10.45;;;2.97;;
54705;SDS011;40603;48.774;8.916;2023-03-17T08:12:15;5.45;;;2.58;;
54705;SDS011;40603;48.774;8.916;2023-03-17T08:14:40;9.23;;;3.35;;
54705;SDS011;40603;48.774;8.916;2023-03-17T08:17:06;4.10;;;2.67;;
54705;SDS011;40603;48.774;8.916;2023-03-17T08:19:32;5.65;;;2.38;;
54705;SDS011;40603;48.774;8.916;2023-03-17T08:21:57;4.50;;;2.38;;
54705;SDS011;40603;48.774;8.916;2023-03-17T08:24:22;4.38;;;2.75;;
54705;SDS011;40603;48.774;8.916;2023-03-17T08:26:48;7.75;;;2.70;;
54705;SDS011;40603;48.774;8.916;2023-03-17T08:29:13;8.07;;;3.30;;
54705;SDS011;40603;48.774;8.916;2023-03-17T08:31:39;13.52;;;3.30;;
54705;SDS011;40603;48.774;8.916;2023-03-17T08:34:05;5.35;;;2.90;;
54705;SDS011;40603;48.774;8.916;2023-03-17T08:36:31;8.43;;;2.80;;
54705;SDS011;40603;48.774;8.916;2023-03-17T08:38:56;7.35;;;3.28;;
54705;SDS011;40603;48.774;8.916;2023-03-17T08:41:22;10.13;;;3.03;;
54705;SDS011;40603;48.774;8.916;2023-03-17T08:43:48;8.60;;;2.90;;
54705;SDS011;40603;48.774;8.916;2023-03-17T08:46:17;4.53;;;2.97;;
54705;SDS011;40603;48.774;8.916;2023-03-17T08:48:53;10.30;;;2.70;;
54705;SDS011;40603;48.774;8.916;2023-03-17T08:51:20;8.30;;;2.60;;
54705;SDS011;40603;48.774;8.916;2023-03-17T08:53:46;4.55;;;2.58;;
54705;SDS011;40603;48.774;8.916;2023-03-17T08:56:12;6.63;;;2.50;;
54705;SDS011;40603;48.774;8.916;2023-03-17T08:58:38;5.22;;;2.55;;
54705;SDS011;40603;48.774;8.916;2023-03-17T09:01:04;6.38;;;2.40;;
54705;SDS011;40603;48.774;8.916;2023-03-17T09:03:30;6.45;;;2.17;;
54705;SDS011;40603;48.774;8.916;2023-03-17T09:05:56;4.95;;;1.92;;
54705;SDS011;40603;48.774;8.916;2023-03-17T09:08:22;3.20;;;2.25;;
54705;SDS011;40603;48.774;8.916;2023-03-17T09:10:48;6.10;;;2.63;;
54705;SDS011;40603;48.774;8.916;2023-03-17T09:13:13;4.82;;;2.33;;
54705;SDS011;40603;48.774;8.916;2023-03-17T09:15:39;3.80;;;1.95;;
54705;SDS011;40603;48.774;8.916;2023-03-17T09:18:04;2.88;;;1.55;;
54705;SDS011;40603;48.774;8.916;2023-03-17T09:20:30;4.88;;;2.03;;
54705;SDS011;40603;48.774;8.916;2023-03-17T09:22:56;2.08;;;1.58;;
54705;SDS011;40603;48.774;8.916;2023-03-17T09:25:22;2.63;;;2.03;;
54705;SDS011;40603;48.774;8.916;2023-03-17T09:27:47;2.75;;;1.63;;
54705;SDS011;40603;48.774;8.916;2023-03-17T09:30:13;4.28;;;1.80;;
54705;SDS011;40603;48.774;8.916;2023-03-17T09:32:39;2.45;;;1.70;;
54705;SDS011;40603;48.774;8.916;2023-03-17T09:35:04;3.75;;;2.00;;
54705;SDS011;40603;48.774;8.916;2023-03-17T09:37:30;3.78;;;2.05;;
54705;SDS011;40603;48.774;8.916;2023-03-17T09:39:56;2.92;;;2.10;;
54705;SDS011;40603;48.774;8.916;2023-03-17T09:42:46;2.42;;;1.73;;
54705;SDS011;40603;48.774;8.916;2023-03-17T09:50:51;2.40;;;1.73;;
54705;SDS011;40603;48.774;8.916;2023-03-17T09:53:22;2.53;;;1.80;;
54705;SDS011;40603;48.774;8.916;2023-03-17T09:55:52;3.53;;;1.70;;
54705;SDS011;40603;48.774;8.916;2023-03-17T09:58:21;3.58;;;1.90;;
54705;SDS011;40603;48.774;8.916;2023-03-17T10:00:52;6.22;;;2.00;;
54705;SDS011;40603;48.774;8.916;2023-03-17T10:03:17;6.40;;;1.90;;
54705;SDS011;40603;48.774;8.916;2023-03-17T10:05:43;2.90;;;1.67;;
54705;SDS011;40603;48.774;8.916;2023-03-17T10:08:13;4.80;;;1.85;;
54705;SDS011;40603;48.774;8.916;2023-03-17T10:11:05;8.52;;;1.90;;
54705;SDS011;40603;48.774;8.916;2023-03-17T10:16:11;7.38;;;1.92;;
54705;SDS011;40603;48.774;8.916;2023-03-17T10:21:34;3.40;;;2.05;;
54705;SDS011;40603;48.774;8.916;2023-03-17T10:24:02;6.85;;;2.00;;
54705;SDS011;40603;48.774;8.916;2023-03-17T10:26:48;7.65;;;1.98;;
54705;SDS011;40603;48.774;8.916;2023-03-17T10:29:18;4.03;;;2.65;;
54705;SDS011;40603;48.774;8.916;2023-03-17T10:31:48;12.50;;;2.22;;
54705;SDS011;40603;48.774;8.916;2023-03-17T10:34:16;7.70;;;2.08;;
54705;SDS011;40603;48.774;8.916;2023-03-17T10:36:48;3.42;;;2.05;;
54705;SDS011;40603;48.774;8.916;2023-03-17T10:39:19;4.88;;;2.20;;
54705;SDS011;40603;48.774;8.916;2023-03-17T10:41:51;2.85;;;1.80;;
54705;SDS011;40603;48.774;8.916;2023-03-17T10:44:20;5.10;;;2.00;;
54705;SDS011;40603;48.774;8.916;2023-03-17T10:46:53;3.25;;;1.83;;
54705;SDS011;40603;48.774;8.916;2023-03-17T10:49:19;3.97;;;1.75;;
54705;SDS011;40603;48.774;8.916;2023-03-17T10:51:46;5.65;;;1.88;;
54705;SDS011;40603;48.774;8.916;2023-03-17T10:54:17;4.05;;;1.90;;
54705;SDS011;40603;48.774;8.916;2023-03-17T10:56:42;6.00;;;1.88;;
54705;SDS011;40603;48.774;8.916;2023-03-17T10:59:24;2.90;;;1.70;;
54705;SDS011;40603;48.774;8.916;2023-03-17T11:01:53;4.75;;;1.80;;
54705;SDS011;40603;48.774;8.916;2023-03-17T11:04:25;3.80;;;1.65;;
54705;SDS011;40603;48.774;8.916;2023-03-17T11:06:57;5.97;;;1.60;;
54705;SDS011;40603;48.774;8.916;2023-03-17T11:09:23;4.97;;;1.53;;
54705;SDS011;40603;48.774;8.916;2023-03-17T11:11:58;2.25;;;1.52;;
54705;SDS011;40603;48.774;8.916;2023-03-17T11:14:25;4.32;;;1.73;;
54705;SDS011;40603;48.774;8.916;2023-03-17T11:19:36;3.42;;;1.30;;
54705;SDS011;40603;48.774;8.916;2023-03-17T11:22:13;2.75;;;1.20;;
54705;SDS011;40603;48.774;8.916;2023-03-17T11:36:53;5.22;;;1.20;;
54705;SDS011;40603;48.774;8.916;2023-03-17T11:39:27;1.23;;;0.90;;
54705;SDS011;40603;48.774;8.916;2023-03-17T11:42:04;6.07;;;1.15;;
54705;SDS011;40603;48.774;8.916;2023-03-17T11:44:39;3.95;;;0.93;;
54705;SDS011;40603;48.774;8.916;2023-03-17T11:49:49;5.20;;;1.00;;
54705;SDS011;40603;48.774;8.916;2023-03-17T11:52:31;2.72;;;1.10;;
54705;SDS011;40603;48.774;8.916;2023-03-17T11:55:19;8.02;;;0.90;;
54705;SDS011;40603;48.774;8.916;2023-03-17T12:00:24;3.30;;;1.10;;
54705;SDS011;40603;48.774;8.916;2023-03-17T12:05:31;3.20;;;1.60;;
54705;SDS011;40603;48.774;8.916;2023-03-17T12:08:02;3.20;;;0.90;;
54705;SDS011;40603;48.774;8.916;2023-03-17T12:10:31;2.40;;;1.08;;
54705;SDS011;40603;48.774;8.916;2023-03-17T12:15:46;4.80;;;1.10;;
54705;SDS011;40603;48.774;8.916;2023-03-17T12:18:16;3.33;;;1.10;;
54705;SDS011;40603;48.774;8.916;2023-03-17T12:20:59;5.22;;;1.25;;
54705;SDS011;40603;48.774;8.916;2023-03-17T12:23:35;1.00;;;0.75;;
54705;SDS011;40603;48.774;8.916;2023-03-17T12:26:04;3.40;;;0.90;;
54705;SDS011;40603;48.774;8.916;2023-03-17T12:28:35;3.63;;;0.80;;
54705;SDS011;40603;48.774;8.916;2023-03-17T12:31:05;5.72;;;1.33;;
54705;SDS011;40603;48.774;8.916;2023-03-17T12:36:39;4.53;;;0.80;;
54705;SDS011;40603;48.774;8.916;2023-03-17T12:39:06;4.90;;;0.70;;
54705;SDS011;40603;48.774;8.916;2023-03-17T12:47:29;3.38;;;0.80;;
54705;SDS011;40603;48.774;8.916;2023-03-17T12:55:55;2.35;;;0.95;;
54705;SDS011;40603;48.774;8.916;2023-03-17T13:03:33;8.15;;;0.90;;
54705;SDS011;40603;48.774;8.916;2023-03-17T13:06:02;4.35;;;1.10;;
54705;SDS011;40603;48.774;8.916;2023-03-17T13:08:31;1.95;;;0.95;;
54705;SDS011;40603;48.774;8.916;2023-03-17T13:11:13;5.90;;;0.90;;
54705;SDS011;40603;48.774;8.916;2023-03-17T13:13:56;5.70;;;0.93;;
54705;SDS011;40603;48.774;8.916;2023-03-17T13:16:33;4.70;;;1.02;;
54705;SDS011;40603;48.774;8.916;2023-03-17T13:21:43;2.50;;;1.30;;
54705;SDS011;40603;48.774;8.916;2023-03-17T13:26:59;2.33;;;0.68;;
54705;SDS011;40603;48.774;8.916;2023-03-17T13:34:44;3.00;;;0.80;;
54705;SDS011;40603;48.774;8.916;2023-03-17T13:37:15;4.78;;;0.90;;
54705;SDS011;40603;48.774;8.916;2023-03-17T13:42:56;2.15;;;0.85;;
54705;SDS011;40603;48.774;8.916;2023-03-17T13:50:45;0.60;;;0.60;;
54705;SDS011;40603;48.774;8.916;2023-03-17T13:53:10;1.52;;;0.80;;
54705;SDS011;40603;48.774;8.916;2023-03-17T13:55:37;1.50;;;0.60;;
54705;SDS011;40603;48.774;8.916;2023-03-17T14:00:42;3.83;;;0.70;;
54705;SDS011;40603;48.774;8.916;2023-03-17T14:03:19;2.10;;;0.98;;
54705;SDS011;40603;48.774;8.916;2023-03-17T14:05:49;3.05;;;1.10;;
54705;SDS011;40603;48.774;8.916;2023-03-17T14:08:32;4.15;;;1.10;;
54705;SDS011;40603;48.774;8.916;2023-03-17T14:11:00;3.35;;;0.90;;
54705;SDS011;40603;48.774;8.916;2023-03-17T14:16:19;3.28;;;1.80;;
54705;SDS011;40603;48.774;8.916;2023-03-17T14:18:49;5.13;;;1.92;;
54705;SDS011;40603;48.774;8.916;2023-03-17T14:21:21;3.30;;;1.58;;
54705;SDS011;40603;48.774;8.916;2023-03-17T14:23:55;2.10;;;1.70;;
54705;SDS011;40603;48.774;8.916;2023-03-17T14:26:22;2.22;;;1.25;;
54705;SDS011;40603;48.774;8.916;2023-03-17T14:28:48;4.53;;;1.10;;
54705;SDS011;40603;48.774;8.916;2023-03-17T14:31:21;1.92;;;0.73;;
54705;SDS011;40603;48.774;8.916;2023-03-17T14:33:49;2.60;;;0.85;;
54705;SDS011;40603;48.774;8.916;2023-03-17T14:36:16;1.70;;;0.90;;
54705;SDS011;40603;48.774;8.916;2023-03-17T14:38:46;2.65;;;0.85;;
54705;SDS011;40603;48.774;8.916;2023-03-17T14:43:38;0.70;;;0.60;;
54705;SDS011;40603;48.774;8.916;2023-03-17T14:46:26;0.95;;;0.80;;
54705;SDS011;40603;48.774;8.916;2023-03-17T14:49:03;1.23;;;0.75;;
54705;SDS011;40603;48.774;8.916;2023-03-17T14:51:38;1.67;;;0.60;;
54705;SDS011;40603;48.774;8.916;2023-03-17T14:54:26;4.30;;;0.80;;
54705;SDS011;40603;48.774;8.916;2023-03-17T14:57:04;1.00;;;0.88;;
54705;SDS011;40603;48.774;8.916;2023-03-17T14:59:35;2.90;;;0.85;;
54705;SDS011;40603;48.774;8.916;2023-03-17T15:04:54;3.38;;;0.80;;
54705;SDS011;40603;48.774;8.916;2023-03-17T15:07:28;2.65;;;1.25;;
54705;SDS011;40603;48.774;8.916;2023-03-17T15:09:59;3.55;;;0.88;;
54705;SDS011;40603;48.774;8.916;2023-03-17T15:12:26;3.92;;;0.70;;
54705;SDS011;40603;48.774;8.916;2023-03-17T15:14:52;3.30;;;0.88;;
54705;SDS011;40603;48.774;8.916;2023-03-17T15:17:20;6.57;;;1.35;;
54705;SDS011;40603;48.774;8.916;2023-03-17T15:19:51;1.45;;;0.85;;
54705;SDS011;40603;48.774;8.916;2023-03-17T15:27:48;1.10;;;0.73;;
54705;SDS011;40603;48.774;8.916;2023-03-17T15:30:14;1.02;;;0.70;;
54705;SDS011;40603;48.774;8.916;2023-03-17T15:32:40;1.45;;;0.80;;
54705;SDS011;40603;48.774;8.916;2023-03-17T15:35:06;0.75;;;0.70;;
54705;SDS011;40603;48.774;8.916;2023-03-17T15:37:35;1.10;;;0.98;;
54705;SDS011;40603;48.774;8.916;2023-03-17T15:40:00;1.30;;;0.75;;
54705;SDS011;40603;48.774;8.916;2023-03-17T15:42:28;0.95;;;0.50;;
54705;SDS011;40603;48.774;8.916;2023-03-17T15:44:55;4.05;;;0.82;;
54705;SDS011;40603;48.774;8.916;2023-03-17T15:47:22;2.80;;;0.90;;
54705;SDS011;40603;48.774;8.916;2023-03-17T15:49:49;1.35;;;0.70;;
54705;SDS011;40603;48.774;8.916;2023-03-17T15:52:16;2.17;;;0.98;;
54705;SDS011;40603;48.774;8.916;2023-03-17T15:54:45;2.22;;;0.85;;
54705;SDS011;40603;48.774;8.916;2023-03-17T15:57:11;1.95;;;1.00;;
54705;SDS011;40603;48.774;8.916;2023-03-17T15:59:37;3.30;;;1.00;;
54705;SDS011;40603;48.774;8.916;2023-03-17T16:02:08;2.10;;;0.68;;
54705;SDS011;40603;48.774;8.916;2023-03-17T16:04:46;1.27;;;1.08;;
54705;SDS011;40603;48.774;8.916;2023-03-17T16:07:11;1.60;;;0.93;;
54705;SDS011;40603;48.774;8.916;2023-03-17T16:09:37;4.78;;;1.00;;
54705;SDS011;40603;48.774;8.916;2023-03-17T16:12:02;1.58;;;1.20;;
54705;SDS011;40603;48.774;8.916;2023-03-17T16:14:27;1.58;;;0.98;;
54705;SDS011;40603;48.774;8.916;2023-03-17T16:16:53;2.35;;;1.13;;
54705;SDS011;40603;48.774;8.916;2023-03-17T16:19:18;1.20;;;0.90;;
54705;SDS011;40603;48.774;8.916;2023-03-17T16:21:45;2.25;;;1.20;;
54705;SDS011;40603;48.774;8.916;2023-03-17T16:24:14;9.55;;;1.63;;
54705;SDS011;40603;48.774;8.916;2023-03-17T16:26:41;5.18;;;1.88;;
54705;SDS011;40603;48.774;8.916;2023-03-17T16:29:10;6.43;;;1.60;;
54705;SDS011;40603;48.774;8.916;2023-03-17T16:31:37;4.05;;;1.80;;
54705;SDS011;40603;48.774;8.916;2023-03-17T16:34:07;6.07;;;1.70;;